Time,TemperatureF,DewpointF,PressureIn,WindDirection,WindDirectionDegrees,WindSpeedMPH,WindSpeedGustMPH,Humidity,HourlyPrecipIn,Conditions,Clouds,dailyrainin,SolarRadiationWatts/m^2,SoftwareType,DateUTC
2013-05-10 00:02:00,43.8,41.6,29.89,ENE,65,4.0,5.0,92,0.05,,,0.00,0,Wunderground v.1.15,2013-05-10 05:02:00,
2013-05-10 00:09:00,43.8,41.6,29.89,ESE,113,3.0,7.0,92,0.10,,,0.01,0,Wunderground v.1.15,2013-05-10 05:09:00,
2013-05-10 00:14:00,43.7,41.5,29.89,ENE,66,4.0,4.0,92,0.15,,,0.03,0,Wunderground v.1.15,2013-05-10 05:14:00,
2013-05-10 00:20:00,43.7,41.5,29.89,NE,46,4.0,4.0,92,0.37,,,0.05,0,Wunderground v.1.15,2013-05-10 05:20:00,
2013-05-10 00:25:00,43.8,41.6,29.89,East,94,3.0,4.0,92,0.27,,,0.07,0,Wunderground v.1.15,2013-05-10 05:25:00,
2013-05-10 00:30:00,43.6,41.4,29.88,SE,140,2.0,3.0,92,0.36,,,0.10,0,Wunderground v.1.15,2013-05-10 05:30:00,
2013-05-10 00:37:00,43.5,41.6,29.88,NE,47,3.0,13.0,93,0.35,,,0.15,0,Wunderground v.1.15,2013-05-10 05:37:00,
2013-05-10 00:44:00,43.4,41.5,29.88,East,84,5.0,5.0,93,0.27,,,0.18,0,Wunderground v.1.15,2013-05-10 05:44:00,
2013-05-10 00:49:00,43.4,41.5,29.88,East,90,3.0,5.0,93,0.58,,,0.21,0,Wunderground v.1.15,2013-05-10 05:49:00,
2013-05-10 00:54:00,43.5,41.6,29.88,East,98,2.0,3.0,93,0.41,,,0.24,0,Wunderground v.1.15,2013-05-10 05:54:00,
2013-05-10 00:59:00,43.4,41.5,29.88,NE,36,3.0,3.0,93,0.23,,,0.26,0,Wunderground v.1.15,2013-05-10 05:59:00,
2013-05-10 01:04:00,43.3,41.4,29.88,East,88,4.0,7.0,93,0.17,,,0.28,0,Wunderground v.1.15,2013-05-10 06:04:00,
2013-05-10 01:09:00,43.4,41.5,29.88,NE,55,2.0,7.0,93,0.51,,,0.32,0,Wunderground v.1.15,2013-05-10 06:09:00,
2013-05-10 01:16:00,43.3,41.4,29.88,NE,39,3.0,4.0,93,0.21,,,0.35,0,Wunderground v.1.15,2013-05-10 06:16:00,
2013-05-10 01:22:00,43.2,41.0,29.88,East,86,3.0,4.0,92,0.15,,,0.37,0,Wunderground v.1.15,2013-05-10 06:22:00,
2013-05-10 01:29:00,43.2,41.0,29.88,ENE,68,2.0,7.0,92,0.06,,,0.37,0,Wunderground v.1.15,2013-05-10 06:29:00,
2013-05-10 01:35:00,43.0,40.8,29.87,East,98,3.0,5.0,92,0.06,,,0.38,0,Wunderground v.1.15,2013-05-10 06:35:00,
2013-05-10 01:41:00,43.0,41.1,29.87,ENE,63,4.0,5.0,93,0.09,,,0.39,0,Wunderground v.1.15,2013-05-10 06:41:00,
2013-05-10 01:47:00,43.0,41.1,29.87,NNE,32,4.0,8.0,93,0.09,,,0.40,0,Wunderground v.1.15,2013-05-10 06:47:00,
2013-05-10 01:52:00,42.9,40.7,29.87,ENE,60,4.0,6.0,92,0.12,,,0.41,0,Wunderground v.1.15,2013-05-10 06:52:00,
2013-05-10 01:59:00,43.0,41.1,29.87,NE,35,3.0,6.0,93,0.22,,,0.43,0,Wunderground v.1.15,2013-05-10 06:59:00,
2013-05-10 02:04:00,43.0,40.8,29.86,NE,49,3.0,8.0,92,0.10,,,0.44,0,Wunderground v.1.15,2013-05-10 07:04:00,
2013-05-10 02:09:00,43.0,40.8,29.86,East,90,3.0,8.0,92,0.12,,,0.45,0,Wunderground v.1.15,2013-05-10 07:09:00,
2013-05-10 02:15:00,43.1,40.9,29.87,ENE,72,3.0,6.0,92,0.09,,,0.45,0,Wunderground v.1.15,2013-05-10 07:15:00,
2013-05-10 02:20:00,43.1,40.9,29.87,NNE,32,3.0,3.0,92,0.16,,,0.46,0,Wunderground v.1.15,2013-05-10 07:20:00,
2013-05-10 02:25:00,43.1,40.9,29.87,NE,34,4.0,6.0,92,0.16,,,0.48,0,Wunderground v.1.15,2013-05-10 07:25:00,
2013-05-10 02:31:00,43.1,40.9,29.87,NE,51,5.0,5.0,92,0.17,,,0.50,0,Wunderground v.1.15,2013-05-10 07:31:00,
2013-05-10 02:37:00,43.3,41.1,29.87,North,355,5.0,5.0,92,0.14,,,0.52,0,Wunderground v.1.15,2013-05-10 07:37:00,
2013-05-10 02:44:00,43.3,41.1,29.87,NNE,32,3.0,4.0,92,0.19,,,0.55,0,Wunderground v.1.15,2013-05-10 07:44:00,
2013-05-10 02:50:00,43.1,40.9,29.87,ENE,64,4.0,4.0,92,0.71,,,0.59,0,Wunderground v.1.15,2013-05-10 07:50:00,
2013-05-10 02:57:00,43.0,40.8,29.87,NNE,22,5.0,7.0,92,0.18,,,0.62,0,Wunderground v.1.15,2013-05-10 07:57:00,
2013-05-10 03:02:00,43.2,41.0,29.86,NNE,20,5.0,6.0,92,0.19,,,0.63,0,Wunderground v.1.15,2013-05-10 08:02:00,
2013-05-10 03:09:00,42.9,40.7,29.86,NE,55,5.0,7.0,92,0.13,,,0.65,0,Wunderground v.1.15,2013-05-10 08:09:00,
2013-05-10 03:15:00,43.0,40.8,29.85,NNE,15,4.0,5.0,92,0.09,,,0.66,0,Wunderground v.1.15,2013-05-10 08:15:00,
2013-05-10 03:20:00,43.0,40.8,29.85,North,355,5.0,5.0,92,0.18,,,0.67,0,Wunderground v.1.15,2013-05-10 08:20:00,
2013-05-10 03:25:00,43.0,40.8,29.85,NNE,30,5.0,7.0,92,0.08,,,0.67,0,Wunderground v.1.15,2013-05-10 08:25:00,
2013-05-10 03:32:00,42.9,40.7,29.85,NNE,28,4.0,6.0,92,0.14,,,0.69,0,Wunderground v.1.15,2013-05-10 08:32:00,
2013-05-10 03:39:00,43.0,40.8,29.85,NNE,13,4.0,6.0,92,0.08,,,0.70,0,Wunderground v.1.15,2013-05-10 08:39:00,
2013-05-10 03:44:00,43.1,40.9,29.85,NE,46,4.0,6.0,92,0.08,,,0.70,0,Wunderground v.1.15,2013-05-10 08:44:00,
2013-05-10 03:49:00,43.1,40.9,29.85,North,355,5.0,6.0,92,0.06,,,0.70,0,Wunderground v.1.15,2013-05-10 08:49:00,
2013-05-10 03:54:00,43.0,40.8,29.85,NE,38,5.0,6.0,92,0.06,,,0.71,0,Wunderground v.1.15,2013-05-10 08:54:00,
2013-05-10 04:00:00,43.0,40.8,29.85,NNE,21,5.0,7.0,92,0.08,,,0.72,0,Wunderground v.1.15,2013-05-10 09:00:00,
2013-05-10 04:05:00,43.2,41.0,29.85,NNE,14,5.0,5.0,92,0.15,,,0.74,0,Wunderground v.1.15,2013-05-10 09:05:00,
2013-05-10 04:10:00,43.3,41.1,29.85,NNE,31,5.0,11.0,92,0.20,,,0.75,0,Wunderground v.1.15,2013-05-10 09:10:00,
2013-05-10 04:15:00,43.3,41.1,29.85,North,349,6.0,11.0,92,0.21,,,0.77,0,Wunderground v.1.15,2013-05-10 09:15:00,
2013-05-10 04:22:00,43.4,41.2,29.85,NNW,338,6.0,7.0,92,0.16,,,0.78,0,Wunderground v.1.15,2013-05-10 09:22:00,
2013-05-10 04:27:00,43.3,41.1,29.85,NNE,20,6.0,7.0,92,0.13,,,0.79,0,Wunderground v.1.15,2013-05-10 09:27:00,
2013-05-10 04:32:00,43.5,41.3,29.85,North,360,6.0,6.0,92,0.06,,,0.79,0,Wunderground v.1.15,2013-05-10 09:32:00,
2013-05-10 04:39:00,43.6,41.4,29.85,NE,35,4.0,8.0,92,0.00,,,0.79,0,Wunderground v.1.15,2013-05-10 09:39:00,
2013-05-10 04:44:00,43.7,41.5,29.85,NE,39,4.0,7.0,92,0.00,,,0.79,0,Wunderground v.1.15,2013-05-10 09:44:00,
2013-05-10 04:50:00,43.9,41.7,29.86,North,355,5.0,10.0,92,0.00,,,0.79,0,Wunderground v.1.15,2013-05-10 09:50:00,
2013-05-10 04:55:00,43.9,41.7,29.86,North,11,4.0,10.0,92,0.00,,,0.79,0,Wunderground v.1.15,2013-05-10 09:55:00,
2013-05-10 05:01:00,44.0,41.8,29.86,NE,35,4.0,4.0,92,0.00,,,0.79,0,Wunderground v.1.15,2013-05-10 10:01:00,
2013-05-10 05:07:00,44.0,41.8,29.86,NNE,28,4.0,4.0,92,0.00,,,0.79,0,Wunderground v.1.15,2013-05-10 10:07:00,
2013-05-10 05:12:00,44.0,41.5,29.86,NNE,24,3.0,4.0,91,0.00,,,0.80,0,Wunderground v.1.15,2013-05-10 10:12:00,
2013-05-10 05:19:00,44.1,41.9,29.87,NNE,28,4.0,8.0,92,0.07,,,0.81,0,Wunderground v.1.15,2013-05-10 10:19:00,
2013-05-10 05:24:00,44.3,42.1,29.87,NW,326,4.0,6.0,92,0.07,,,0.81,0,Wunderground v.1.15,2013-05-10 10:24:00,
2013-05-10 05:29:00,44.4,42.2,29.87,NNW,348,5.0,6.0,92,0.05,,,0.81,0,Wunderground v.1.15,2013-05-10 10:29:00,
2013-05-10 05:34:00,44.2,41.7,29.87,NNW,333,6.0,7.0,91,0.04,,,0.81,0,Wunderground v.1.15,2013-05-10 10:34:00,
2013-05-10 05:39:00,44.2,42.0,29.87,NNW,346,5.0,7.0,92,0.00,,,0.81,0,Wunderground v.1.15,2013-05-10 10:39:00,
2013-05-10 05:44:00,44.3,42.1,29.87,NNE,13,4.0,4.0,92,0.00,,,0.81,0,Wunderground v.1.15,2013-05-10 10:44:00,
2013-05-10 05:49:00,44.3,42.1,29.87,NNE,26,4.0,4.0,92,0.00,,,0.81,0,Wunderground v.1.15,2013-05-10 10:49:00,
2013-05-10 05:55:00,44.2,42.0,29.87,North,355,5.0,8.0,92,0.00,,,0.81,0,Wunderground v.1.15,2013-05-10 10:55:00,
2013-05-10 06:01:00,44.3,42.1,29.87,NNE,20,6.0,8.0,92,0.00,,,0.81,0,Wunderground v.1.15,2013-05-10 11:01:00,
2013-05-10 06:07:00,44.3,42.1,29.87,North,5,6.0,8.0,92,0.00,,,0.81,0,Wunderground v.1.15,2013-05-10 11:07:00,
2013-05-10 06:12:00,44.1,41.9,29.87,NE,43,6.0,10.0,92,0.00,,,0.81,0,Wunderground v.1.15,2013-05-10 11:12:00,
2013-05-10 06:17:00,44.1,41.9,29.87,NNE,28,7.0,10.0,92,0.00,,,0.81,5,Wunderground v.1.15,2013-05-10 11:17:00,
2013-05-10 06:22:00,44.2,42.0,29.87,NNE,20,6.0,6.0,92,0.00,,,0.82,5,Wunderground v.1.15,2013-05-10 11:22:00,
2013-05-10 06:27:00,44.1,41.9,29.87,NNE,13,4.0,7.0,92,0.00,,,0.82,0,Wunderground v.1.15,2013-05-10 11:27:00,
2013-05-10 06:32:00,44.2,42.0,29.88,North,355,5.0,6.0,92,0.00,,,0.82,0,Wunderground v.1.15,2013-05-10 11:32:00,
2013-05-10 06:39:00,44.3,42.1,29.88,North,5,6.0,8.0,92,0.00,,,0.83,9,Wunderground v.1.15,2013-05-10 11:39:00,
2013-05-10 06:44:00,44.3,42.1,29.89,NNW,342,5.0,8.0,92,0.00,,,0.83,11,Wunderground v.1.15,2013-05-10 11:44:00,
2013-05-10 06:49:00,44.4,42.2,29.89,North,5,5.0,8.0,92,0.00,,,0.83,11,Wunderground v.1.15,2013-05-10 11:49:00,
2013-05-10 06:55:00,44.5,42.3,29.89,North,360,4.0,14.0,92,0.00,,,0.83,11,Wunderground v.1.15,2013-05-10 11:55:00,
2013-05-10 07:01:00,44.6,42.4,29.89,North,355,5.0,5.0,92,0.00,,,0.83,14,Wunderground v.1.15,2013-05-10 12:01:00,
2013-05-10 07:07:00,44.8,42.6,29.89,NNW,348,6.0,8.0,92,0.00,,,0.83,16,Wunderground v.1.15,2013-05-10 12:07:00,
2013-05-10 07:12:00,44.8,42.3,29.89,NNE,28,7.0,8.0,91,0.00,,,0.83,21,Wunderground v.1.15,2013-05-10 12:12:00,
2013-05-10 07:17:00,44.7,42.2,29.90,NNE,15,6.0,9.0,91,0.00,,,0.83,21,Wunderground v.1.15,2013-05-10 12:17:00,
2013-05-10 07:22:00,44.9,42.7,29.90,NNW,331,6.0,11.0,92,0.00,,,0.83,25,Wunderground v.1.15,2013-05-10 12:22:00,
2013-05-10 07:29:00,44.9,42.4,29.90,North,5,7.0,11.0,91,0.00,,,0.83,21,Wunderground v.1.15,2013-05-10 12:29:00,
2013-05-10 07:34:00,44.9,42.4,29.91,North,5,6.0,12.0,91,0.00,,,0.83,23,Wunderground v.1.15,2013-05-10 12:34:00,
2013-05-10 07:40:00,44.9,42.4,29.91,NE,35,7.0,7.0,91,0.00,,,0.83,23,Wunderground v.1.15,2013-05-10 12:40:00,
2013-05-10 07:45:00,44.8,42.3,29.91,NNE,29,8.0,12.0,91,0.00,,,0.83,25,Wunderground v.1.15,2013-05-10 12:45:00,
2013-05-10 07:52:00,44.6,41.8,29.91,NE,39,8.0,13.0,90,0.00,,,0.83,33,Wunderground v.1.15,2013-05-10 12:52:00,
2013-05-10 07:59:00,44.7,41.9,29.91,North,360,9.0,13.0,90,0.00,,,0.83,40,Wunderground v.1.15,2013-05-10 12:59:00,
2013-05-10 08:04:00,44.7,41.9,29.91,NE,41,8.0,10.0,90,0.00,,,0.83,53,Wunderground v.1.15,2013-05-10 13:04:00,
2013-05-10 08:09:00,44.6,41.8,29.91,North,360,9.0,12.0,90,0.00,,,0.83,54,Wunderground v.1.15,2013-05-10 13:09:00,
2013-05-10 08:14:00,44.6,41.8,29.92,North,5,9.0,12.0,90,0.00,,,0.83,58,Wunderground v.1.15,2013-05-10 13:14:00,
2013-05-10 08:20:00,44.7,42.2,29.92,NE,46,6.0,6.0,91,0.00,,,0.83,63,Wunderground v.1.15,2013-05-10 13:20:00,
2013-05-10 08:27:00,44.6,41.8,29.92,North,360,7.0,8.0,90,0.00,,,0.83,60,Wunderground v.1.15,2013-05-10 13:27:00,
2013-05-10 08:32:00,44.6,41.8,29.92,North,5,8.0,8.0,90,0.00,,,0.83,60,Wunderground v.1.15,2013-05-10 13:32:00,
2013-05-10 08:39:00,44.8,42.0,29.92,NE,46,8.0,8.0,90,0.00,,,0.83,77,Wunderground v.1.15,2013-05-10 13:39:00,
2013-05-10 08:44:00,44.8,42.0,29.92,NE,44,10.0,17.0,90,0.00,,,0.83,79,Wunderground v.1.15,2013-05-10 13:44:00,
2013-05-10 08:49:00,44.8,42.0,29.92,NNW,347,10.0,17.0,90,0.00,,,0.83,62,Wunderground v.1.15,2013-05-10 13:49:00,
2013-05-10 08:55:00,44.9,42.1,29.92,North,5,8.0,10.0,90,0.00,,,0.83,49,Wunderground v.1.15,2013-05-10 13:55:00,
2013-05-10 09:00:00,44.9,42.1,29.93,NE,34,6.0,9.0,90,0.00,,,0.83,49,Wunderground v.1.15,2013-05-10 14:00:00,
2013-05-10 09:05:00,44.9,42.1,29.93,ENE,74,4.0,9.0,90,0.00,,,0.83,83,Wunderground v.1.15,2013-05-10 14:05:00,
2013-05-10 09:10:00,45.0,42.2,29.93,North,349,4.0,6.0,90,0.00,,,0.83,88,Wunderground v.1.15,2013-05-10 14:10:00,
2013-05-10 09:17:00,45.1,42.3,29.93,North,5,7.0,9.0,90,0.00,,,0.83,90,Wunderground v.1.15,2013-05-10 14:17:00,
2013-05-10 09:22:00,45.2,42.4,29.93,ENE,62,8.0,9.0,90,0.00,,,0.83,105,Wunderground v.1.15,2013-05-10 14:22:00,
2013-05-10 09:27:00,45.2,42.2,29.93,NNE,14,8.0,9.0,89,0.00,,,0.83,100,Wunderground v.1.15,2013-05-10 14:27:00,
2013-05-10 09:32:00,45.3,42.2,29.94,NNE,31,6.0,7.0,89,0.00,,,0.83,79,Wunderground v.1.15,2013-05-10 14:32:00,
2013-05-10 09:39:00,45.2,42.2,29.94,North,360,6.0,10.0,89,0.00,,,0.83,77,Wunderground v.1.15,2013-05-10 14:39:00,
2013-05-10 09:44:00,45.3,42.2,29.95,NNW,342,7.0,11.0,89,0.00,,,0.83,93,Wunderground v.1.15,2013-05-10 14:44:00,
2013-05-10 09:49:00,45.5,42.4,29.95,NNE,14,8.0,11.0,89,0.00,,,0.83,111,Wunderground v.1.15,2013-05-10 14:49:00,
2013-05-10 09:55:00,45.4,42.1,29.95,ENE,69,8.0,11.0,88,0.00,,,0.83,118,Wunderground v.1.15,2013-05-10 14:55:00,
2013-05-10 10:01:00,45.4,42.1,29.95,NNE,12,7.0,7.0,88,0.00,,,0.83,120,Wunderground v.1.15,2013-05-10 15:01:00,
2013-05-10 10:07:00,45.4,42.3,29.95,North,11,6.0,7.0,89,0.00,,,0.83,121,Wunderground v.1.15,2013-05-10 15:07:00,
2013-05-10 10:14:00,45.2,41.9,29.95,North,9,8.0,12.0,88,0.00,,,0.83,135,Wunderground v.1.15,2013-05-10 15:14:00,
2013-05-10 10:19:00,45.2,41.9,29.95,NE,34,9.0,12.0,88,0.00,,,0.83,123,Wunderground v.1.15,2013-05-10 15:19:00,
2013-05-10 10:25:00,45.1,41.8,29.95,NNE,30,8.0,9.0,88,0.00,,,0.83,139,Wunderground v.1.15,2013-05-10 15:25:00,
2013-05-10 10:30:00,45.3,42.0,29.96,ENE,59,7.0,7.0,88,0.00,,,0.83,120,Wunderground v.1.15,2013-05-10 15:30:00,
2013-05-10 10:37:00,45.2,41.9,29.96,NNE,19,6.0,9.0,88,0.00,,,0.83,132,Wunderground v.1.15,2013-05-10 15:37:00,
2013-05-10 10:42:00,45.2,41.9,29.96,NNE,19,6.0,6.0,88,0.00,,,0.83,155,Wunderground v.1.15,2013-05-10 15:42:00,
2013-05-10 10:47:00,45.3,42.0,29.96,NNW,342,6.0,9.0,88,0.00,,,0.83,146,Wunderground v.1.15,2013-05-10 15:47:00,
2013-05-10 10:54:00,45.4,42.1,29.96,North,5,7.0,8.0,88,0.00,,,0.83,144,Wunderground v.1.15,2013-05-10 15:54:00,
2013-05-10 10:59:00,45.4,41.8,29.97,NE,34,8.0,11.0,87,0.00,,,0.83,155,Wunderground v.1.15,2013-05-10 15:59:00,
2013-05-10 11:05:00,45.5,42.2,29.97,North,9,8.0,9.0,88,0.00,,,0.83,134,Wunderground v.1.15,2013-05-10 16:05:00,
2013-05-10 11:10:00,45.5,42.2,29.97,NNE,13,7.0,11.0,88,0.00,,,0.83,132,Wunderground v.1.15,2013-05-10 16:10:00,
2013-05-10 11:15:00,45.5,41.9,29.97,NE,41,7.0,11.0,87,0.00,,,0.83,165,Wunderground v.1.15,2013-05-10 16:15:00,
2013-05-10 11:22:00,45.5,42.2,29.97,NNE,28,7.0,9.0,88,0.00,,,0.83,160,Wunderground v.1.15,2013-05-10 16:22:00,
2013-05-10 11:27:00,45.5,41.9,29.97,NNE,26,7.0,9.0,87,0.00,,,0.83,183,Wunderground v.1.15,2013-05-10 16:27:00,
2013-05-10 11:32:00,45.6,42.0,29.97,NNE,20,8.0,9.0,87,0.00,,,0.83,186,Wunderground v.1.15,2013-05-10 16:32:00,
2013-05-10 11:39:00,45.6,42.3,29.97,NNW,335,7.0,9.0,88,0.00,,,0.83,97,Wunderground v.1.15,2013-05-10 16:39:00,
2013-05-10 11:45:00,45.2,41.9,29.97,NNE,18,7.0,8.0,88,0.00,,,0.83,134,Wunderground v.1.15,2013-05-10 16:45:00,
2013-05-10 11:52:00,45.0,42.0,29.97,NNE,26,7.0,7.0,89,0.00,,,0.83,130,Wunderground v.1.15,2013-05-10 16:52:00,
2013-05-10 11:59:00,44.8,41.8,29.97,North,355,6.0,9.0,89,0.00,,,0.83,167,Wunderground v.1.15,2013-05-10 16:59:00,
2013-05-10 12:05:00,44.6,41.6,29.98,NNW,346,7.0,9.0,89,0.00,,,0.83,179,Wunderground v.1.15,2013-05-10 17:05:00,
2013-05-10 12:10:00,44.8,42.0,29.98,North,11,7.0,7.0,90,0.00,,,0.83,141,Wunderground v.1.15,2013-05-10 17:10:00,
2013-05-10 12:17:00,44.5,41.5,29.99,NNW,337,7.0,14.0,89,0.00,,,0.83,149,Wunderground v.1.15,2013-05-10 17:17:00,
2013-05-10 12:22:00,44.4,41.4,29.99,NNE,22,8.0,8.0,89,0.00,,,0.83,174,Wunderground v.1.15,2013-05-10 17:22:00,
2013-05-10 12:29:00,44.5,41.5,29.99,North,5,7.0,8.0,89,0.00,,,0.83,176,Wunderground v.1.15,2013-05-10 17:29:00,
2013-05-10 12:34:00,44.4,41.4,29.99,NNE,19,8.0,13.0,89,0.00,,,0.83,171,Wunderground v.1.15,2013-05-10 17:34:00,
2013-05-10 12:42:00,44.4,41.4,29.99,NNE,30,8.0,8.0,89,0.00,,,0.83,176,Wunderground v.1.15,2013-05-10 17:42:00,
2013-05-10 12:47:00,44.7,41.7,29.99,NNE,31,8.0,8.0,89,0.00,,,0.83,206,Wunderground v.1.15,2013-05-10 17:47:00,
2013-05-10 12:54:00,44.6,41.3,29.99,NE,53,8.0,10.0,88,0.00,,,0.83,229,Wunderground v.1.15,2013-05-10 17:54:00,
2013-05-10 13:01:00,44.6,41.3,29.99,NE,44,9.0,11.0,88,0.00,,,0.83,225,Wunderground v.1.15,2013-05-10 18:01:00,
2013-05-10 13:07:00,44.6,41.3,29.99,NNW,344,9.0,11.0,88,0.00,,,0.83,255,Wunderground v.1.15,2013-05-10 18:07:00,
2013-05-10 13:12:00,44.7,41.1,29.99,NE,42,8.0,8.0,87,0.00,,,0.83,192,Wunderground v.1.15,2013-05-10 18:12:00,
2013-05-10 13:19:00,44.9,41.6,29.99,NE,43,7.0,8.0,88,0.00,,,0.83,216,Wunderground v.1.15,2013-05-10 18:19:00,
2013-05-10 13:24:00,44.7,41.1,29.99,NNE,14,6.0,8.0,87,0.00,,,0.83,225,Wunderground v.1.15,2013-05-10 18:24:00,
2013-05-10 13:30:00,44.8,41.5,29.99,NNE,16,7.0,9.0,88,0.00,,,0.83,241,Wunderground v.1.15,2013-05-10 18:30:00,
2013-05-10 13:35:00,44.9,41.6,29.99,NW,321,6.0,9.0,88,0.00,,,0.83,241,Wunderground v.1.15,2013-05-10 18:35:00,
2013-05-10 13:40:00,45.1,41.5,29.99,NNE,22,7.0,7.0,87,0.00,,,0.83,244,Wunderground v.1.15,2013-05-10 18:40:00,
2013-05-10 13:45:00,45.3,41.7,29.99,NNW,341,5.0,7.0,87,0.00,,,0.83,204,Wunderground v.1.15,2013-05-10 18:45:00,
2013-05-10 13:52:00,45.2,41.6,29.99,NW,313,6.0,8.0,87,0.00,,,0.83,183,Wunderground v.1.15,2013-05-10 18:52:00,
2013-05-10 13:59:00,45.0,41.7,29.99,North,350,7.0,10.0,88,0.00,,,0.83,192,Wunderground v.1.15,2013-05-10 18:59:00,
2013-05-10 14:05:00,45.0,41.4,29.99,North,5,8.0,8.0,87,0.00,,,0.83,230,Wunderground v.1.15,2013-05-10 19:05:00,
2013-05-10 14:10:00,45.3,41.4,29.99,NNE,32,8.0,8.0,86,0.00,,,0.83,241,Wunderground v.1.15,2013-05-10 19:10:00,
2013-05-10 14:16:00,45.5,41.3,29.99,North,350,8.0,8.0,85,0.00,,,0.83,264,Wunderground v.1.15,2013-05-10 19:16:00,
2013-05-10 14:22:00,46.0,41.7,29.99,NNE,27,6.0,7.0,85,0.00,,,0.83,211,Wunderground v.1.15,2013-05-10 19:22:00,
2013-05-10 14:29:00,46.3,42.0,29.99,NNE,20,5.0,7.0,85,0.00,,,0.83,250,Wunderground v.1.15,2013-05-10 19:29:00,
2013-05-10 14:35:00,46.1,41.8,29.99,NNW,348,7.0,10.0,85,0.00,,,0.83,211,Wunderground v.1.15,2013-05-10 19:35:00,
2013-05-10 14:41:00,46.0,42.0,29.99,NW,315,8.0,8.0,86,0.00,,,0.83,186,Wunderground v.1.15,2013-05-10 19:41:00,
2013-05-10 14:47:00,46.1,41.8,30.00,NE,47,8.0,11.0,85,0.00,,,0.83,199,Wunderground v.1.15,2013-05-10 19:47:00,
2013-05-10 14:54:00,46.4,42.4,30.00,NNW,336,6.0,7.0,86,0.00,,,0.83,190,Wunderground v.1.15,2013-05-10 19:54:00,
2013-05-10 15:00:00,46.3,42.0,29.99,NNW,343,7.0,12.0,85,0.00,,,0.83,204,Wunderground v.1.15,2013-05-10 20:00:00,
2013-05-10 15:05:00,46.3,42.3,29.99,North,355,9.0,14.0,86,0.00,,,0.83,167,Wunderground v.1.15,2013-05-10 20:05:00,
2013-05-10 15:10:00,46.3,42.3,29.99,North,5,9.0,10.0,86,0.00,,,0.83,185,Wunderground v.1.15,2013-05-10 20:10:00,
2013-05-10 15:15:00,46.3,42.0,29.99,NW,319,8.0,10.0,85,0.00,,,0.83,193,Wunderground v.1.15,2013-05-10 20:15:00,
2013-05-10 15:22:00,46.5,42.2,29.99,NNW,348,7.0,7.0,85,0.00,,,0.83,192,Wunderground v.1.15,2013-05-10 20:22:00,
2013-05-10 15:27:00,46.5,42.2,29.99,NNE,17,7.0,8.0,85,0.00,,,0.83,200,Wunderground v.1.15,2013-05-10 20:27:00,
2013-05-10 15:32:00,46.5,42.5,29.99,NNW,341,8.0,10.0,86,0.00,,,0.83,211,Wunderground v.1.15,2013-05-10 20:32:00,
2013-05-10 15:39:00,46.4,42.1,29.99,NNE,26,8.0,10.0,85,0.00,,,0.83,220,Wunderground v.1.15,2013-05-10 20:39:00,
2013-05-10 15:45:00,46.5,42.2,29.99,NNE,24,7.0,12.0,85,0.00,,,0.83,211,Wunderground v.1.15,2013-05-10 20:45:00,
2013-05-10 15:50:00,46.6,42.0,29.99,NNE,15,8.0,12.0,84,0.00,,,0.83,220,Wunderground v.1.15,2013-05-10 20:50:00,
2013-05-10 15:55:00,47.0,42.7,29.99,NNW,340,7.0,8.0,85,0.00,,,0.83,218,Wunderground v.1.15,2013-05-10 20:55:00,
2013-05-10 16:01:00,47.1,42.5,29.98,North,350,6.0,6.0,84,0.00,,,0.83,209,Wunderground v.1.15,2013-05-10 21:01:00,
2013-05-10 16:07:00,47.3,42.4,29.98,NE,38,6.0,10.0,83,0.00,,,0.83,165,Wunderground v.1.15,2013-05-10 21:07:00,
2013-05-10 16:12:00,47.3,42.4,29.98,NNE,17,7.0,7.0,83,0.00,,,0.83,172,Wunderground v.1.15,2013-05-10 21:12:00,
2013-05-10 16:19:00,47.5,42.6,29.98,North,9,6.0,8.0,83,0.00,,,0.83,142,Wunderground v.1.15,2013-05-10 21:19:00,
2013-05-10 16:24:00,47.3,43.0,29.98,NW,311,7.0,8.0,85,0.00,,,0.83,139,Wunderground v.1.15,2013-05-10 21:24:00,
2013-05-10 16:29:00,47.3,43.0,29.98,NW,321,8.0,12.0,85,0.00,,,0.83,121,Wunderground v.1.15,2013-05-10 21:29:00,
2013-05-10 16:34:00,47.2,42.9,29.98,North,5,8.0,12.0,85,0.00,,,0.83,134,Wunderground v.1.15,2013-05-10 21:34:00,
2013-05-10 16:39:00,47.4,42.8,29.98,ENE,57,8.0,12.0,84,0.00,,,0.83,135,Wunderground v.1.15,2013-05-10 21:39:00,
2013-05-10 16:44:00,47.6,43.0,29.98,NNW,338,5.0,7.0,84,0.00,,,0.83,125,Wunderground v.1.15,2013-05-10 21:44:00,
2013-05-10 16:50:00,47.7,43.1,29.98,North,355,5.0,6.0,84,0.00,,,0.83,137,Wunderground v.1.15,2013-05-10 21:50:00,
2013-05-10 16:57:00,47.7,42.8,29.98,North,355,7.0,9.0,83,0.00,,,0.83,148,Wunderground v.1.15,2013-05-10 21:57:00,
2013-05-10 16:59:00,47.7,42.8,29.98,NNW,348,7.0,9.0,83,0.00,,,0.83,134,Wunderground v.1.15,2013-05-10 21:59:00,
2013-05-10 17:00:00,47.7,43.1,29.98,NNE,17,7.0,9.0,84,0.00,,,0.83,130,Wunderground v.1.15,2013-05-10 22:00:00,
2013-05-10 17:02:00,47.7,43.1,29.98,North,360,7.0,10.0,84,0.00,,,0.83,121,Wunderground v.1.15,2013-05-10 22:02:00,
2013-05-10 17:09:00,47.9,43.0,29.98,North,5,7.0,10.0,83,0.00,,,0.83,149,Wunderground v.1.15,2013-05-10 22:09:00,
2013-05-10 17:15:00,48.2,43.3,29.98,North,355,6.0,7.0,83,0.00,,,0.83,141,Wunderground v.1.15,2013-05-10 22:15:00,
2013-05-10 17:20:00,48.3,43.4,29.98,NNE,12,5.0,9.0,83,0.00,,,0.83,130,Wunderground v.1.15,2013-05-10 22:20:00,
2013-05-10 17:24:00,48.2,43.0,29.98,NNW,342,6.0,9.0,82,0.00,,,0.83,141,Wunderground v.1.15,2013-05-10 22:24:00,
2013-05-10 17:29:00,48.3,43.7,29.98,North,5,7.0,9.0,84,0.00,,,0.83,125,Wunderground v.1.15,2013-05-10 22:29:00,
2013-05-10 17:35:00,48.4,43.5,29.98,NNE,19,7.0,10.0,83,0.00,,,0.83,114,Wunderground v.1.15,2013-05-10 22:35:00,
2013-05-10 17:40:00,48.5,43.6,29.98,North,355,7.0,7.0,83,0.00,,,0.83,95,Wunderground v.1.15,2013-05-10 22:40:00,
2013-05-10 17:45:00,48.6,43.4,29.99,NNE,15,6.0,7.0,82,0.00,,,0.83,120,Wunderground v.1.15,2013-05-10 22:45:00,
2013-05-10 17:52:00,48.7,43.8,29.99,NNW,348,6.0,6.0,83,0.00,,,0.83,125,Wunderground v.1.15,2013-05-10 22:52:00,
2013-05-10 17:59:00,48.8,43.5,29.99,North,5,7.0,10.0,82,0.00,,,0.83,83,Wunderground v.1.15,2013-05-10 22:59:00,
2013-05-10 18:05:00,48.8,43.5,29.99,NNW,341,7.0,10.0,82,0.00,,,0.83,77,Wunderground v.1.15,2013-05-10 23:05:00,
2013-05-10 18:10:00,48.8,43.5,29.99,NNW,329,7.0,7.0,82,0.00,,,0.83,51,Wunderground v.1.15,2013-05-10 23:10:00,
2013-05-10 18:15:00,48.8,43.9,29.99,North,355,7.0,8.0,83,0.00,,,0.83,44,Wunderground v.1.15,2013-05-10 23:15:00,
2013-05-10 18:22:00,48.9,44.0,29.99,NNW,329,6.0,7.0,83,0.00,,,0.83,60,Wunderground v.1.15,2013-05-10 23:22:00,
2013-05-10 18:27:00,48.7,43.8,29.99,NW,325,6.0,7.0,83,0.00,,,0.83,56,Wunderground v.1.15,2013-05-10 23:27:00,
2013-05-10 18:32:00,48.5,43.9,30.00,NNW,346,6.0,8.0,84,0.00,,,0.83,44,Wunderground v.1.15,2013-05-10 23:32:00,
2013-05-10 18:39:00,48.4,43.8,30.00,NNW,344,7.0,8.0,84,0.00,,,0.83,37,Wunderground v.1.15,2013-05-10 23:39:00,
2013-05-10 18:45:00,48.4,44.1,30.00,NW,317,6.0,7.0,85,0.00,,,0.83,30,Wunderground v.1.15,2013-05-10 23:45:00,
2013-05-10 18:50:00,48.3,43.7,30.00,NW,323,6.0,8.0,84,0.00,,,0.83,28,Wunderground v.1.15,2013-05-10 23:50:00,
2013-05-10 18:55:00,48.2,43.6,30.00,NW,326,6.0,7.0,84,0.00,,,0.83,26,Wunderground v.1.15,2013-05-10 23:55:00,
2013-05-10 19:01:00,48.2,43.9,30.00,NNW,333,6.0,6.0,85,0.00,,,0.83,25,Wunderground v.1.15,2013-05-11 00:01:00,
2013-05-10 19:07:00,48.1,43.5,30.00,NNW,336,6.0,8.0,84,0.00,,,0.83,23,Wunderground v.1.15,2013-05-11 00:07:00,
2013-05-10 19:14:00,48.1,43.5,30.00,NNW,328,6.0,7.0,84,0.00,,,0.83,19,Wunderground v.1.15,2013-05-11 00:14:00,
2013-05-10 19:19:00,48.0,43.4,30.00,NW,325,6.0,8.0,84,0.00,,,0.83,16,Wunderground v.1.15,2013-05-11 00:19:00,
2013-05-10 19:24:00,47.8,43.2,30.00,North,350,5.0,9.0,84,0.00,,,0.83,14,Wunderground v.1.15,2013-05-11 00:24:00,
2013-05-10 19:29:00,47.8,43.2,30.00,NNW,341,5.0,10.0,84,0.00,,,0.83,12,Wunderground v.1.15,2013-05-11 00:29:00,
2013-05-10 19:35:00,47.9,43.0,30.00,NNE,16,5.0,6.0,83,0.00,,,0.83,9,Wunderground v.1.15,2013-05-11 00:35:00,
2013-05-10 19:40:00,47.9,43.3,30.00,NNE,18,5.0,5.0,84,0.00,,,0.83,5,Wunderground v.1.15,2013-05-11 00:40:00,
2013-05-10 19:47:00,47.9,43.3,30.00,North,5,3.0,5.0,84,0.00,,,0.83,5,Wunderground v.1.15,2013-05-11 00:47:00,
2013-05-10 19:52:00,47.8,43.2,30.00,North,360,4.0,5.0,84,0.00,,,0.83,0,Wunderground v.1.15,2013-05-11 00:52:00,
2013-05-10 19:59:00,47.8,43.5,30.00,NNW,331,4.0,5.0,85,0.00,,,0.83,0,Wunderground v.1.15,2013-05-11 00:59:00,
2013-05-10 20:04:00,47.8,43.5,30.00,North,11,4.0,4.0,85,0.00,,,0.83,0,Wunderground v.1.15,2013-05-11 01:04:00,
2013-05-10 20:09:00,47.7,43.4,30.00,North,351,3.0,4.0,85,0.00,,,0.83,0,Wunderground v.1.15,2013-05-11 01:09:00,
2013-05-10 20:15:00,47.7,43.7,30.00,North,360,3.0,5.0,86,0.00,,,0.83,0,Wunderground v.1.15,2013-05-11 01:15:00,
2013-05-10 20:20:00,47.8,43.8,30.00,North,355,3.0,3.0,86,0.00,,,0.83,0,Wunderground v.1.15,2013-05-11 01:20:00,
2013-05-10 20:25:00,47.7,43.4,30.00,NNW,336,4.0,5.0,85,0.00,,,0.83,0,Wunderground v.1.15,2013-05-11 01:25:00,
2013-05-10 20:30:00,47.8,43.5,30.00,NNW,337,3.0,4.0,85,0.00,,,0.83,0,Wunderground v.1.15,2013-05-11 01:30:00,
2013-05-10 20:37:00,47.7,43.4,30.00,NNW,337,3.0,4.0,85,0.00,,,0.83,0,Wunderground v.1.15,2013-05-11 01:37:00,
2013-05-10 20:42:00,47.6,43.3,30.00,NE,38,2.0,4.0,85,0.00,,,0.83,0,Wunderground v.1.15,2013-05-11 01:42:00,
2013-05-10 20:49:00,47.5,43.2,30.00,NE,38,1.0,4.0,85,0.00,,,0.83,0,Wunderground v.1.15,2013-05-11 01:49:00,
2013-05-10 20:54:00,47.3,43.0,30.00,NE,38,0.0,1.0,85,0.00,,,0.83,0,Wunderground v.1.15,2013-05-11 01:54:00,
2013-05-10 21:00:00,47.2,42.9,30.00,NE,38,0.0,1.0,85,0.00,,,0.83,0,Wunderground v.1.15,2013-05-11 02:00:00,
2013-05-10 21:05:00,47.0,43.0,30.00,NE,38,0.0,0.0,86,0.00,,,0.83,0,Wunderground v.1.15,2013-05-11 02:05:00,
2013-05-10 21:10:00,46.8,42.8,30.00,NE,38,0.0,0.0,86,0.00,,,0.83,0,Wunderground v.1.15,2013-05-11 02:10:00,
2013-05-10 21:17:00,46.5,42.8,30.00,NE,38,0.0,0.0,87,0.00,,,0.83,0,Wunderground v.1.15,2013-05-11 02:17:00,
2013-05-10 21:24:00,46.6,42.9,30.00,NE,38,0.0,0.0,87,0.00,,,0.83,0,Wunderground v.1.15,2013-05-11 02:24:00,
2013-05-10 21:29:00,46.6,42.9,30.00,NE,38,0.0,0.0,87,0.00,,,0.83,0,Wunderground v.1.15,2013-05-11 02:29:00,
2013-05-10 21:34:00,46.3,42.6,30.01,NE,38,0.0,0.0,87,0.00,,,0.83,0,Wunderground v.1.15,2013-05-11 02:34:00,
2013-05-10 21:39:00,46.1,42.7,30.01,NE,38,0.0,0.0,88,0.00,,,0.83,0,Wunderground v.1.15,2013-05-11 02:39:00,
2013-05-10 21:45:00,45.9,42.5,30.01,NE,38,0.0,0.0,88,0.00,,,0.83,0,Wunderground v.1.15,2013-05-11 02:45:00,
2013-05-10 21:50:00,45.4,42.3,30.01,NE,38,0.0,1.0,89,0.00,,,0.83,0,Wunderground v.1.15,2013-05-11 02:50:00,
2013-05-10 21:55:00,45.0,42.0,30.01,NE,38,0.0,0.0,89,0.00,,,0.83,0,Wunderground v.1.15,2013-05-11 02:55:00,
2013-05-10 22:01:00,44.7,41.9,30.01,ENE,59,0.0,0.0,90,0.00,,,0.83,0,Wunderground v.1.15,2013-05-11 03:01:00,
2013-05-10 22:07:00,44.4,41.7,30.01,ENE,59,0.0,0.0,90,0.00,,,0.83,0,Wunderground v.1.15,2013-05-11 03:07:00,
2013-05-10 22:14:00,44.2,41.5,30.01,ENE,59,0.0,0.0,90,0.00,,,0.83,0,Wunderground v.1.15,2013-05-11 03:14:00,
2013-05-10 22:20:00,44.1,41.6,30.01,ENE,59,0.0,0.0,91,0.00,,,0.83,0,Wunderground v.1.15,2013-05-11 03:20:00,
2013-05-10 22:25:00,44.1,41.6,30.01,ENE,59,0.0,0.0,91,0.00,,,0.83,0,Wunderground v.1.15,2013-05-11 03:25:00,
2013-05-10 22:30:00,43.9,41.4,30.01,ENE,59,0.0,0.0,91,0.00,,,0.83,0,Wunderground v.1.15,2013-05-11 03:30:00,
2013-05-10 22:37:00,43.8,41.3,30.01,ENE,59,0.0,0.0,91,0.00,,,0.83,0,Wunderground v.1.15,2013-05-11 03:37:00,
2013-05-10 22:42:00,43.7,41.2,30.01,ENE,59,0.0,0.0,91,0.00,,,0.83,0,Wunderground v.1.15,2013-05-11 03:42:00,
2013-05-10 22:49:00,42.7,40.3,30.01,ENE,59,0.0,0.0,91,0.00,,,0.83,0,Wunderground v.1.15,2013-05-11 03:49:00,
2013-05-10 22:54:00,42.3,40.1,30.01,ENE,59,0.0,0.0,92,0.00,,,0.83,0,Wunderground v.1.15,2013-05-11 03:54:00,
2013-05-10 23:00:00,42.1,39.9,30.00,ENE,59,0.0,0.0,92,0.00,,,0.83,0,Wunderground v.1.15,2013-05-11 04:00:00,
2013-05-10 23:01:00,42.0,39.8,30.00,ENE,59,0.0,0.0,92,0.00,,,0.83,0,Wunderground v.1.15,2013-05-11 04:01:00,
2013-05-10 23:02:00,41.9,39.7,30.00,ENE,59,0.0,0.0,92,0.00,,,0.83,0,Wunderground v.1.15,2013-05-11 04:02:00,
2013-05-10 23:05:00,41.7,39.5,30.00,ENE,59,0.0,0.0,92,0.00,,,0.83,0,Wunderground v.1.15,2013-05-11 04:05:00,
2013-05-10 23:07:00,41.6,39.4,30.00,ENE,59,0.0,0.0,92,0.00,,,0.83,0,Wunderground v.1.15,2013-05-11 04:07:00,
2013-05-10 23:12:00,41.7,39.8,30.00,ENE,59,0.0,0.0,93,0.00,,,0.83,0,Wunderground v.1.15,2013-05-11 04:12:00,
2013-05-10 23:19:00,41.3,39.2,30.00,ENE,59,0.0,0.0,92,0.00,,,0.83,0,Wunderground v.1.15,2013-05-11 04:19:00,
2013-05-10 23:24:00,41.0,39.1,30.00,ENE,59,0.0,0.0,93,0.00,,,0.83,0,Wunderground v.1.15,2013-05-11 04:24:00,
2013-05-10 23:27:00,41.0,39.1,30.00,ENE,59,0.0,0.0,93,0.00,,,0.83,0,Wunderground v.1.15,2013-05-11 04:27:00,
2013-05-10 23:32:00,41.7,39.8,30.00,ENE,59,0.0,0.0,93,0.00,,,0.83,0,Wunderground v.1.15,2013-05-11 04:32:00,
2013-05-10 23:39:00,41.6,39.7,30.00,ENE,59,0.0,0.0,93,0.00,,,0.83,0,Wunderground v.1.15,2013-05-11 04:39:00,
2013-05-10 23:44:00,42.2,40.6,29.99,ENE,59,0.0,0.0,94,0.00,,,0.83,0,Wunderground v.1.15,2013-05-11 04:44:00,
2013-05-10 23:50:00,41.9,40.3,29.99,ENE,59,0.0,0.0,94,0.00,,,0.83,0,Wunderground v.1.15,2013-05-11 04:50:00,
2013-05-10 23:55:00,41.3,39.4,29.99,ENE,59,0.0,0.0,93,0.00,,,0.83,0,Wunderground v.1.15,2013-05-11 04:55:00,